sensor_id;sensor_type;location;lat;lon;timestamp;temperature;humidity
69387;SHT31;56575;48.942;8.404;2023-04-25T00:01:16;9.89;77.05
69387;SHT31;56575;48.942;8.404;2023-04-25T00:03:42;9.86;77.73
69387;SHT31;56575;48.942;8.404;2023-04-25T00:06:07;9.87;76.60
69387;SHT31;56575;48.942;8.404;2023-04-25T00:08:33;9.81;76.71
69387;SHT31;56575;48.942;8.404;2023-04-25T00:10:59;9.76;76.90
69387;SHT31;56575;48.942;8.404;2023-04-25T00:13:25;9.79;76.91
69387;SHT31;56575;48.942;8.404;2023-04-25T00:15:51;9.81;77.16
69387;SHT31;56575;48.942;8.404;2023-04-25T00:18:18;9.82;77.10
69387;SHT31;56575;48.942;8.404;2023-04-25T00:20:44;9.81;77.73
69387;SHT31;56575;48.942;8.404;2023-04-25T00:23:12;9.71;77.15
69387;SHT31;56575;48.942;8.404;2023-04-25T00:25:49;9.71;77.12
69387;SHT31;56575;48.942;8.404;2023-04-25T00:28:15;9.75;77.41
69387;SHT31;56575;48.942;8.404;2023-04-25T00:30:41;9.76;77.21
69387;SHT31;56575;48.942;8.404;2023-04-25T00:33:07;9.75;77.43
69387;SHT31;56575;48.942;8.404;2023-04-25T00:35:33;9.78;78.10
69387;SHT31;56575;48.942;8.404;2023-04-25T00:37:58;9.81;77.79
69387;SHT31;56575;48.942;8.404;2023-04-25T00:40:24;9.81;77.90
69387;SHT31;56575;48.942;8.404;2023-04-25T00:42:51;9.81;80.87
69387;SHT31;56575;48.942;8.404;2023-04-25T00:45:18;9.74;78.72
69387;SHT31;56575;48.942;8.404;2023-04-25T00:47:43;9.72;79.41
69387;SHT31;56575;48.942;8.404;2023-04-25T00:50:09;9.69;79.10
69387;SHT31;56575;48.942;8.404;2023-04-25T00:52:37;9.65;79.80
69387;SHT31;56575;48.942;8.404;2023-04-25T00:55:04;9.67;78.96
69387;SHT31;56575;48.942;8.404;2023-04-25T00:57:30;9.67;78.91
69387;SHT31;56575;48.942;8.404;2023-04-25T00:59:55;9.69;79.42
69387;SHT31;56575;48.942;8.404;2023-04-25T01:02:21;9.71;79.07
69387;SHT31;56575;48.942;8.404;2023-04-25T01:04:47;9.75;78.68
69387;SHT31;56575;48.942;8.404;2023-04-25T01:07:13;9.78;78.83
69387;SHT31;56575;48.942;8.404;2023-04-25T01:09:39;9.69;78.69
69387;SHT31;56575;48.942;8.404;2023-04-25T01:12:05;9.69;79.00
69387;SHT31;56575;48.942;8.404;2023-04-25T01:14:30;9.68;79.16
69387;SHT31;56575;48.942;8.404;2023-04-25T01:16:56;9.72;79.08
69387;SHT31;56575;48.942;8.404;2023-04-25T01:19:23;9.69;79.05
69387;SHT31;56575;48.942;8.404;2023-04-25T01:21:48;9.68;79.31
69387;SHT31;56575;48.942;8.404;2023-04-25T01:24:14;9.69;79.09
69387;SHT31;56575;48.942;8.404;2023-04-25T01:26:41;9.72;78.96
69387;SHT31;56575;48.942;8.404;2023-04-25T01:29:10;9.69;79.20
69387;SHT31;56575;48.942;8.404;2023-04-25T01:31:36;9.71;79.00
69387;SHT31;56575;48.942;8.404;2023-04-25T01:34:02;9.71;79.17
69387;SHT31;56575;48.942;8.404;2023-04-25T01:36:27;9.68;79.06
69387;SHT31;56575;48.942;8.404;2023-04-25T01:38:53;9.65;79.14
69387;SHT31;56575;48.942;8.404;2023-04-25T01:41:19;9.55;79.41
69387;SHT31;56575;48.942;8.404;2023-04-25T01:43:44;9.58;79.65
69387;SHT31;56575;48.942;8.404;2023-04-25T01:46:11;9.59;79.62
69387;SHT31;56575;48.942;8.404;2023-04-25T01:48:36;9.59;79.44
69387;SHT31;56575;48.942;8.404;2023-04-25T01:51:04;9.61;79.39
69387;SHT31;56575;48.942;8.404;2023-04-25T01:53:29;9.58;79.44
69387;SHT31;56575;48.942;8.404;2023-04-25T01:55:55;9.62;79.37
69387;SHT31;56575;48.942;8.404;2023-04-25T01:58:20;9.61;79.50
69387;SHT31;56575;48.942;8.404;2023-04-25T02:00:46;9.52;79.62
69387;SHT31;56575;48.942;8.404;2023-04-25T02:03:11;9.51;79.71
69387;SHT31;56575;48.942;8.404;2023-04-25T02:05:38;9.49;79.86
69387;SHT31;56575;48.942;8.404;2023-04-25T02:08:05;9.47;80.22
69387;SHT31;56575;48.942;8.404;2023-04-25T02:10:31;9.49;80.48
69387;SHT31;56575;48.942;8.404;2023-04-25T02:12:57;9.54;80.46
69387;SHT31;56575;48.942;8.404;2023-04-25T02:15:23;9.45;80.23
69387;SHT31;56575;48.942;8.404;2023-04-25T02:17:48;9.47;80.48
69387;SHT31;56575;48.942;8.404;2023-04-25T02:20:14;9.47;80.81
69387;SHT31;56575;48.942;8.404;2023-04-25T02:22:41;9.42;80.51
69387;SHT31;56575;48.942;8.404;2023-04-25T02:25:07;9.37;80.44
69387;SHT31;56575;48.942;8.404;2023-04-25T02:27:32;9.42;80.48
69387;SHT31;56575;48.942;8.404;2023-04-25T02:29:58;9.45;80.59
69387;SHT31;56575;48.942;8.404;2023-04-25T02:32:23;9.49;80.59
69387;SHT31;56575;48.942;8.404;2023-04-25T02:34:49;9.44;80.44
69387;SHT31;56575;48.942;8.404;2023-04-25T02:37:14;9.41;80.48
69387;SHT31;56575;48.942;8.404;2023-04-25T02:39:40;9.44;80.61
69387;SHT31;56575;48.942;8.404;2023-04-25T02:42:05;9.45;80.27
69387;SHT31;56575;48.942;8.404;2023-04-25T02:44:30;9.42;80.07
69387;SHT31;56575;48.942;8.404;2023-04-25T02:46:56;9.44;80.23
69387;SHT31;56575;48.942;8.404;2023-04-25T02:49:21;9.37;79.98
69387;SHT31;56575;48.942;8.404;2023-04-25T02:51:46;9.37;80.10
69387;SHT31;56575;48.942;8.404;2023-04-25T02:54:12;9.40;80.57
69387;SHT31;56575;48.942;8.404;2023-04-25T02:56:37;9.41;80.70
69387;SHT31;56575;48.942;8.404;2023-04-25T02:59:03;9.44;81.22
69387;SHT31;56575;48.942;8.404;2023-04-25T03:01:28;9.42;80.87
69387;SHT31;56575;48.942;8.404;2023-04-25T03:03:54;9.37;80.98
69387;SHT31;56575;48.942;8.404;2023-04-25T03:06:19;9.34;81.43
69387;SHT31;56575;48.942;8.404;2023-04-25T03:08:45;9.24;81.25
69387;SHT31;56575;48.942;8.404;2023-04-25T03:11:10;9.21;81.48
69387;SHT31;56575;48.942;8.404;2023-04-25T03:13:35;9.20;81.61
69387;SHT31;56575;48.942;8.404;2023-04-25T03:16:01;9.21;82.38
69387;SHT31;56575;48.942;8.404;2023-04-25T03:18:26;9.23;82.80
69387;SHT31;56575;48.942;8.404;2023-04-25T03:20:51;9.26;82.73
69387;SHT31;56575;48.942;8.404;2023-04-25T03:23:17;9.28;83.65
69387;SHT31;56575;48.942;8.404;2023-04-25T03:25:42;9.28;83.11
69387;SHT31;56575;48.942;8.404;2023-04-25T03:28:08;9.30;83.77
69387;SHT31;56575;48.942;8.404;2023-04-25T03:30:33;9.31;84.34
69387;SHT31;56575;48.942;8.404;2023-04-25T03:32:58;9.26;83.05
69387;SHT31;56575;48.942;8.404;2023-04-25T03:35:24;9.21;83.28
69387;SHT31;56575;48.942;8.404;2023-04-25T03:37:50;9.13;83.27
69387;SHT31;56575;48.942;8.404;2023-04-25T03:40:15;9.17;84.29
69387;SHT31;56575;48.942;8.404;2023-04-25T03:42:41;9.16;83.27
69387;SHT31;56575;48.942;8.404;2023-04-25T03:45:07;9.16;83.11
69387;SHT31;56575;48.942;8.404;2023-04-25T03:47:33;9.19;82.91
69387;SHT31;56575;48.942;8.404;2023-04-25T03:49:58;9.17;82.76
69387;SHT31;56575;48.942;8.404;2023-04-25T03:52:25;9.19;84.23
69387;SHT31;56575;48.942;8.404;2023-04-25T03:54:51;9.17;83.47
69387;SHT31;56575;48.942;8.404;2023-04-25T03:57:16;9.13;83.03
69387;SHT31;56575;48.942;8.404;2023-04-25T03:59:41;9.13;83.10
69387;SHT31;56575;48.942;8.404;2023-04-25T04:02:07;9.13;83.48
69387;SHT31;56575;48.942;8.404;2023-04-25T04:04:32;9.10;84.94
69387;SHT31;56575;48.942;8.404;2023-04-25T04:06:58;9.04;83.15
69387;SHT31;56575;48.942;8.404;2023-04-25T04:09:23;9.02;84.11
69387;SHT31;56575;48.942;8.404;2023-04-25T04:11:48;8.97;85.36
69387;SHT31;56575;48.942;8.404;2023-04-25T04:14:14;8.92;85.57
69387;SHT31;56575;48.942;8.404;2023-04-25T04:16:39;8.82;85.04
69387;SHT31;56575;48.942;8.404;2023-04-25T04:19:04;8.75;85.21
69387;SHT31;56575;48.942;8.404;2023-04-25T04:21:30;8.78;86.11
69387;SHT31;56575;48.942;8.404;2023-04-25T04:23:57;8.76;85.75
69387;SHT31;56575;48.942;8.404;2023-04-25T04:26:23;8.72;86.95
69387;SHT31;56575;48.942;8.404;2023-04-25T04:28:49;8.72;87.79
69387;SHT31;56575;48.942;8.404;2023-04-25T04:31:16;8.71;86.94
69387;SHT31;56575;48.942;8.404;2023-04-25T04:33:43;8.75;88.44
69387;SHT31;56575;48.942;8.404;2023-04-25T04:36:09;8.78;88.13
69387;SHT31;56575;48.942;8.404;2023-04-25T04:38:35;8.80;87.17
69387;SHT31;56575;48.942;8.404;2023-04-25T04:41:01;8.79;87.94
69387;SHT31;56575;48.942;8.404;2023-04-25T04:43:27;8.79;87.16
69387;SHT31;56575;48.942;8.404;2023-04-25T04:45:53;8.83;87.58
69387;SHT31;56575;48.942;8.404;2023-04-25T04:48:21;8.86;86.60
69387;SHT31;56575;48.942;8.404;2023-04-25T04:50:47;8.83;86.75
69387;SHT31;56575;48.942;8.404;2023-04-25T04:53:12;8.85;87.16
69387;SHT31;56575;48.942;8.404;2023-04-25T04:55:38;8.92;87.13
69387;SHT31;56575;48.942;8.404;2023-04-25T04:58:03;8.95;86.68
69387;SHT31;56575;48.942;8.404;2023-04-25T05:00:29;8.99;86.69
69387;SHT31;56575;48.942;8.404;2023-04-25T05:02:55;8.96;84.55
69387;SHT31;56575;48.942;8.404;2023-04-25T05:05:21;8.96;85.20
69387;SHT31;56575;48.942;8.404;2023-04-25T05:07:46;8.97;86.55
69387;SHT31;56575;48.942;8.404;2023-04-25T05:10:11;9.00;85.64
69387;SHT31;56575;48.942;8.404;2023-04-25T05:12:37;9.02;85.73
69387;SHT31;56575;48.942;8.404;2023-04-25T05:15:02;9.00;85.89
69387;SHT31;56575;48.942;8.404;2023-04-25T05:17:28;9.04;86.49
69387;SHT31;56575;48.942;8.404;2023-04-25T05:19:53;9.06;84.57
69387;SHT31;56575;48.942;8.404;2023-04-25T05:22:18;9.03;85.32
69387;SHT31;56575;48.942;8.404;2023-04-25T05:24:44;9.06;85.30
69387;SHT31;56575;48.942;8.404;2023-04-25T05:27:09;9.06;85.41
69387;SHT31;56575;48.942;8.404;2023-04-25T05:29:35;9.07;86.15
69387;SHT31;56575;48.942;8.404;2023-04-25T05:32:00;9.13;85.55
69387;SHT31;56575;48.942;8.404;2023-04-25T05:34:26;9.17;85.81
69387;SHT31;56575;48.942;8.404;2023-04-25T05:36:51;9.20;84.62
69387;SHT31;56575;48.942;8.404;2023-04-25T05:39:16;9.28;84.97
69387;SHT31;56575;48.942;8.404;2023-04-25T05:41:43;9.38;85.29
69387;SHT31;56575;48.942;8.404;2023-04-25T05:44:09;9.44;83.88
69387;SHT31;56575;48.942;8.404;2023-04-25T05:46:34;9.48;84.54
69387;SHT31;56575;48.942;8.404;2023-04-25T05:49:00;9.55;84.28
69387;SHT31;56575;48.942;8.404;2023-04-25T05:51:25;9.40;82.64
69387;SHT31;56575;48.942;8.404;2023-04-25T05:53:51;9.37;84.00
69387;SHT31;56575;48.942;8.404;2023-04-25T05:56:16;9.27;84.78
69387;SHT31;56575;48.942;8.404;2023-04-25T05:58:42;9.28;85.10
69387;SHT31;56575;48.942;8.404;2023-04-25T06:01:07;9.26;85.41
69387;SHT31;56575;48.942;8.404;2023-04-25T06:03:32;9.21;84.98
69387;SHT31;56575;48.942;8.404;2023-04-25T06:05:58;9.14;85.72
69387;SHT31;56575;48.942;8.404;2023-04-25T06:08:23;9.04;85.32
69387;SHT31;56575;48.942;8.404;2023-04-25T06:10:48;9.09;85.97
69387;SHT31;56575;48.942;8.404;2023-04-25T06:13:14;9.06;87.85
69387;SHT31;56575;48.942;8.404;2023-04-25T06:15:40;8.99;86.24
69387;SHT31;56575;48.942;8.404;2023-04-25T06:18:06;9.02;86.32
69387;SHT31;56575;48.942;8.404;2023-04-25T06:20:32;9.03;87.11
69387;SHT31;56575;48.942;8.404;2023-04-25T06:22:57;9.00;86.82
69387;SHT31;56575;48.942;8.404;2023-04-25T06:25:23;8.96;87.09
69387;SHT31;56575;48.942;8.404;2023-04-25T06:27:48;9.03;87.95
69387;SHT31;56575;48.942;8.404;2023-04-25T06:30:13;8.96;86.79
69387;SHT31;56575;48.942;8.404;2023-04-25T06:32:39;8.85;87.86
69387;SHT31;56575;48.942;8.404;2023-04-25T06:35:06;8.80;88.19
69387;SHT31;56575;48.942;8.404;2023-04-25T06:37:31;8.71;87.44
69387;SHT31;56575;48.942;8.404;2023-04-25T06:39:56;8.65;87.88
69387;SHT31;56575;48.942;8.404;2023-04-25T06:42:22;8.65;88.33
69387;SHT31;56575;48.942;8.404;2023-04-25T06:44:47;8.69;89.57
69387;SHT31;56575;48.942;8.404;2023-04-25T06:47:13;8.68;89.44
69387;SHT31;56575;48.942;8.404;2023-04-25T06:49:38;8.71;88.84
69387;SHT31;56575;48.942;8.404;2023-04-25T06:52:04;8.59;88.29
69387;SHT31;56575;48.942;8.404;2023-04-25T06:54:29;8.59;89.73
69387;SHT31;56575;48.942;8.404;2023-04-25T06:56:55;8.57;90.46
69387;SHT31;56575;48.942;8.404;2023-04-25T06:59:22;8.54;90.67
69387;SHT31;56575;48.942;8.404;2023-04-25T07:01:47;8.58;91.53
69387;SHT31;56575;48.942;8.404;2023-04-25T07:04:13;8.59;91.32
69387;SHT31;56575;48.942;8.404;2023-04-25T07:06:38;8.61;90.68
69387;SHT31;56575;48.942;8.404;2023-04-25T07:09:10;8.61;90.88
69387;SHT31;56575;48.942;8.404;2023-04-25T07:11:35;8.57;90.22
69387;SHT31;56575;48.942;8.404;2023-04-25T07:14:01;8.54;90.23
69387;SHT31;56575;48.942;8.404;2023-04-25T07:16:27;8.51;90.91
69387;SHT31;56575;48.942;8.404;2023-04-25T07:18:53;8.45;91.12
69387;SHT31;56575;48.942;8.404;2023-04-25T07:21:19;8.47;91.90
69387;SHT31;56575;48.942;8.404;2023-04-25T07:23:44;8.37;90.96
69387;SHT31;56575;48.942;8.404;2023-04-25T07:26:10;8.36;91.34
69387;SHT31;56575;48.942;8.404;2023-04-25T07:28:35;8.36;91.23
69387;SHT31;56575;48.942;8.404;2023-04-25T07:31:01;8.34;91.51
69387;SHT31;56575;48.942;8.404;2023-04-25T07:33:27;8.45;92.31
69387;SHT31;56575;48.942;8.404;2023-04-25T07:35:53;8.52;91.93
69387;SHT31;56575;48.942;8.404;2023-04-25T07:38:18;8.58;91.99
69387;SHT31;56575;48.942;8.404;2023-04-25T07:40:43;8.65;91.62
69387;SHT31;56575;48.942;8.404;2023-04-25T07:43:09;8.58;91.63
69387;SHT31;56575;48.942;8.404;2023-04-25T07:45:39;8.55;91.09
69387;SHT31;56575;48.942;8.404;2023-04-25T07:48:05;8.51;92.10
69387;SHT31;56575;48.942;8.404;2023-04-25T07:50:30;8.48;92.08
69387;SHT31;56575;48.942;8.404;2023-04-25T07:52:56;8.41;92.29
69387;SHT31;56575;48.942;8.404;2023-04-25T07:55:21;8.37;92.38
69387;SHT31;56575;48.942;8.404;2023-04-25T07:57:46;8.36;92.97
69387;SHT31;56575;48.942;8.404;2023-04-25T08:00:12;8.38;93.36
69387;SHT31;56575;48.942;8.404;2023-04-25T08:02:38;8.45;93.79
69387;SHT31;56575;48.942;8.404;2023-04-25T08:05:03;8.40;92.78
69387;SHT31;56575;48.942;8.404;2023-04-25T08:07:29;8.40;93.27
69387;SHT31;56575;48.942;8.404;2023-04-25T08:09:55;8.29;92.95
69387;SHT31;56575;48.942;8.404;2023-04-25T08:12:20;8.30;94.32
69387;SHT31;56575;48.942;8.404;2023-04-25T08:14:45;8.23;93.92
69387;SHT31;56575;48.942;8.404;2023-04-25T08:17:11;8.20;94.12
69387;SHT31;56575;48.942;8.404;2023-04-25T08:19:36;8.21;93.69
69387;SHT31;56575;48.942;8.404;2023-04-25T08:22:02;8.31;94.27
69387;SHT31;56575;48.942;8.404;2023-04-25T08:24:28;8.44;94.83
69387;SHT31;56575;48.942;8.404;2023-04-25T08:26:53;8.47;94.08
69387;SHT31;56575;48.942;8.404;2023-04-25T08:29:19;8.54;94.63
69387;SHT31;56575;48.942;8.404;2023-04-25T08:31:45;8.52;94.00
69387;SHT31;56575;48.942;8.404;2023-04-25T08:34:10;8.52;93.85
69387;SHT31;56575;48.942;8.404;2023-04-25T08:36:36;8.52;93.82
69387;SHT31;56575;48.942;8.404;2023-04-25T08:39:01;8.48;93.54
69387;SHT31;56575;48.942;8.404;2023-04-25T08:41:27;8.47;94.06
69387;SHT31;56575;48.942;8.404;2023-04-25T08:43:53;8.48;94.45
69387;SHT31;56575;48.942;8.404;2023-04-25T08:46:18;8.57;94.78
69387;SHT31;56575;48.942;8.404;2023-04-25T08:48:45;8.47;93.36
69387;SHT31;56575;48.942;8.404;2023-04-25T08:51:22;8.41;94.97
69387;SHT31;56575;48.942;8.404;2023-04-25T08:53:51;8.37;93.97
69387;SHT31;56575;48.942;8.404;2023-04-25T08:56:18;8.44;94.77
69387;SHT31;56575;48.942;8.404;2023-04-25T08:58:48;8.57;95.79
69387;SHT31;56575;48.942;8.404;2023-04-25T09:01:13;8.69;94.86
69387;SHT31;56575;48.942;8.404;2023-04-25T09:03:40;8.72;94.61
69387;SHT31;56575;48.942;8.404;2023-04-25T09:06:05;8.69;94.08
69387;SHT31;56575;48.942;8.404;2023-04-25T09:08:31;8.61;93.27
69387;SHT31;56575;48.942;8.404;2023-04-25T09:10:56;8.62;94.07
69387;SHT31;56575;48.942;8.404;2023-04-25T09:13:26;8.65;94.90
69387;SHT31;56575;48.942;8.404;2023-04-25T09:15:54;8.80;95.91
69387;SHT31;56575;48.942;8.404;2023-04-25T09:20:55;8.78;95.08
69387;SHT31;56575;48.942;8.404;2023-04-25T09:23:21;8.83;94.41
69387;SHT31;56575;48.942;8.404;2023-04-25T09:25:52;8.85;93.84
69387;SHT31;56575;48.942;8.404;2023-04-25T09:28:25;8.76;93.84
69387;SHT31;56575;48.942;8.404;2023-04-25T09:30:55;8.80;94.21
69387;SHT31;56575;48.942;8.404;2023-04-25T09:33:30;8.76;93.58
69387;SHT31;56575;48.942;8.404;2023-04-25T09:36:10;8.79;96.16
69387;SHT31;56575;48.942;8.404;2023-04-25T09:38:43;8.59;94.79
69387;SHT31;56575;48.942;8.404;2023-04-25T09:41:09;8.55;95.48
69387;SHT31;56575;48.942;8.404;2023-04-25T09:43:35;8.57;96.31
69387;SHT31;56575;48.942;8.404;2023-04-25T09:46:01;8.62;96.28
69387;SHT31;56575;48.942;8.404;2023-04-25T09:48:28;8.61;96.02
69387;SHT31;56575;48.942;8.404;2023-04-25T09:53:28;8.40;94.85
69387;SHT31;56575;48.942;8.404;2023-04-25T09:55:54;8.40;95.64
69387;SHT31;56575;48.942;8.404;2023-04-25T09:58:23;8.47;94.90
69387;SHT31;56575;48.942;8.404;2023-04-25T10:00:49;8.49;94.74
69387;SHT31;56575;48.942;8.404;2023-04-25T10:03:17;8.45;94.28
69387;SHT31;56575;48.942;8.404;2023-04-25T10:05:43;8.44;94.50
69387;SHT31;56575;48.942;8.404;2023-04-25T10:08:08;8.40;94.00
69387;SHT31;56575;48.942;8.404;2023-04-25T10:10:36;8.41;94.59
69387;SHT31;56575;48.942;8.404;2023-04-25T10:13:04;8.34;96.66
69387;SHT31;56575;48.942;8.404;2023-04-25T10:15:31;8.12;99.75
69387;SHT31;56575;48.942;8.404;2023-04-25T10:17:58;8.00;99.99
69387;SHT31;56575;48.942;8.404;2023-04-25T10:20:24;7.95;99.99
69387;SHT31;56575;48.942;8.404;2023-04-25T10:22:54;7.96;99.99
69387;SHT31;56575;48.942;8.404;2023-04-25T10:25:22;7.96;99.99
69387;SHT31;56575;48.942;8.404;2023-04-25T10:27:51;7.87;99.99
69387;SHT31;56575;48.942;8.404;2023-04-25T10:30:18;7.90;99.99
69387;SHT31;56575;48.942;8.404;2023-04-25T10:32:44;7.96;99.99
69387;SHT31;56575;48.942;8.404;2023-04-25T10:35:19;7.96;99.99
69387;SHT31;56575;48.942;8.404;2023-04-25T10:40:22;7.90;99.99
69387;SHT31;56575;48.942;8.404;2023-04-25T10:42:48;7.85;99.99
69387;SHT31;56575;48.942;8.404;2023-04-25T10:45:14;7.79;99.99
69387;SHT31;56575;48.942;8.404;2023-04-25T10:47:48;7.74;99.99
69387;SHT31;56575;48.942;8.404;2023-04-25T10:50:17;7.83;99.99
69387;SHT31;56575;48.942;8.404;2023-04-25T10:52:42;7.95;99.99
69387;SHT31;56575;48.942;8.404;2023-04-25T10:55:09;7.89;99.99
69387;SHT31;56575;48.942;8.404;2023-04-25T11:00:07;7.97;99.99
69387;SHT31;56575;48.942;8.404;2023-04-25T11:02:51;8.03;99.99
69387;SHT31;56575;48.942;8.404;2023-04-25T11:05:22;8.14;99.99
69387;SHT31;56575;48.942;8.404;2023-04-25T11:07:53;8.16;99.99
69387;SHT31;56575;48.942;8.404;2023-04-25T11:10:30;8.13;99.99
69387;SHT31;56575;48.942;8.404;2023-04-25T11:12:56;7.99;99.99
69387;SHT31;56575;48.942;8.404;2023-04-25T11:15:25;8.13;99.99
69387;SHT31;56575;48.942;8.404;2023-04-25T11:17:54;8.03;99.99
69387;SHT31;56575;48.942;8.404;2023-04-25T11:20:20;8.07;99.99
69387;SHT31;56575;48.942;8.404;2023-04-25T11:22:46;7.96;99.99
69387;SHT31;56575;48.942;8.404;2023-04-25T11:25:14;8.09;99.99
69387;SHT31;56575;48.942;8.404;2023-04-25T11:27:50;8.06;99.99
69387;SHT31;56575;48.942;8.404;2023-04-25T11:30:17;8.16;99.99
69387;SHT31;56575;48.942;8.404;2023-04-25T11:32:43;8.10;99.69
69387;SHT31;56575;48.942;8.404;2023-04-25T11:35:12;8.17;99.59
69387;SHT31;56575;48.942;8.404;2023-04-25T11:37:41;8.17;99.15
69387;SHT31;56575;48.942;8.404;2023-04-25T11:40:08;8.30;99.81
69387;SHT31;56575;48.942;8.404;2023-04-25T11:42:36;8.27;99.38
69387;SHT31;56575;48.942;8.404;2023-04-25T11:45:03;8.30;99.04
69387;SHT31;56575;48.942;8.404;2023-04-25T11:47:31;8.33;99.60
69387;SHT31;56575;48.942;8.404;2023-04-25T11:50:01;8.34;99.04
69387;SHT31;56575;48.942;8.404;2023-04-25T11:52:44;8.36;99.05
69387;SHT31;56575;48.942;8.404;2023-04-25T11:57:38;8.31;99.03
69387;SHT31;56575;48.942;8.404;2023-04-25T12:00:13;8.37;99.49
69387;SHT31;56575;48.942;8.404;2023-04-25T12:02:43;8.44;98.84
69387;SHT31;56575;48.942;8.404;2023-04-25T12:05:10;8.42;98.79
69387;SHT31;56575;48.942;8.404;2023-04-25T12:07:36;8.27;98.26
69387;SHT31;56575;48.942;8.404;2023-04-25T12:10:13;8.33;98.77
69387;SHT31;56575;48.942;8.404;2023-04-25T12:12:43;8.34;98.24
69387;SHT31;56575;48.942;8.404;2023-04-25T12:15:09;8.34;98.64
69387;SHT31;56575;48.942;8.404;2023-04-25T12:17:36;8.37;98.46
69387;SHT31;56575;48.942;8.404;2023-04-25T12:20:09;8.33;97.25
69387;SHT31;56575;48.942;8.404;2023-04-25T12:22:34;8.29;97.06
69387;SHT31;56575;48.942;8.404;2023-04-25T12:25:03;8.31;98.00
69387;SHT31;56575;48.942;8.404;2023-04-25T12:27:31;8.24;96.77
69387;SHT31;56575;48.942;8.404;2023-04-25T12:29:57;8.40;97.95
69387;SHT31;56575;48.942;8.404;2023-04-25T12:32:22;8.51;97.18
69387;SHT31;56575;48.942;8.404;2023-04-25T12:34:48;8.69;97.91
69387;SHT31;56575;48.942;8.404;2023-04-25T12:37:13;8.76;97.53
69387;SHT31;56575;48.942;8.404;2023-04-25T12:39:39;8.93;97.70
69387;SHT31;56575;48.942;8.404;2023-04-25T12:42:04;9.09;97.01
69387;SHT31;56575;48.942;8.404;2023-04-25T12:44:33;9.10;94.91
69387;SHT31;56575;48.942;8.404;2023-04-25T12:47:01;9.17;96.50
69387;SHT31;56575;48.942;8.404;2023-04-25T12:49:28;9.21;94.65
69387;SHT31;56575;48.942;8.404;2023-04-25T12:51:53;9.23;94.64
69387;SHT31;56575;48.942;8.404;2023-04-25T12:54:19;9.28;94.04
69387;SHT31;56575;48.942;8.404;2023-04-25T12:56:44;9.27;94.80
69387;SHT31;56575;48.942;8.404;2023-04-25T12:59:11;9.21;93.43
69387;SHT31;56575;48.942;8.404;2023-04-25T13:01:37;9.20;93.76
69387;SHT31;56575;48.942;8.404;2023-04-25T13:04:02;9.07;91.82
69387;SHT31;56575;48.942;8.404;2023-04-25T13:06:27;8.99;92.81
69387;SHT31;56575;48.942;8.404;2023-04-25T13:08:56;9.00;92.26
69387;SHT31;56575;48.942;8.404;2023-04-25T13:11:21;9.21;94.23
69387;SHT31;56575;48.942;8.404;2023-04-25T13:13:48;9.13;91.09
69387;SHT31;56575;48.942;8.404;2023-04-25T13:16:13;9.19;90.47
69387;SHT31;56575;48.942;8.404;2023-04-25T13:18:39;9.27;90.92
69387;SHT31;56575;48.942;8.404;2023-04-25T13:21:05;9.40;90.92
69387;SHT31;56575;48.942;8.404;2023-04-25T13:23:30;9.47;92.03
69387;SHT31;56575;48.942;8.404;2023-04-25T13:25:56;9.54;90.50
69387;SHT31;56575;48.942;8.404;2023-04-25T13:28:26;9.71;91.33
69387;SHT31;56575;48.942;8.404;2023-04-25T13:30:52;9.92;91.33
69387;SHT31;56575;48.942;8.404;2023-04-25T13:33:19;10.14;86.71
69387;SHT31;56575;48.942;8.404;2023-04-25T13:35:46;10.40;86.65
69387;SHT31;56575;48.942;8.404;2023-04-25T13:38:14;10.67;88.50
69387;SHT31;56575;48.942;8.404;2023-04-25T13:40:40;10.78;85.94
69387;SHT31;56575;48.942;8.404;2023-04-25T13:43:05;10.92;86.50
69387;SHT31;56575;48.942;8.404;2023-04-25T13:45:31;11.19;85.70
69387;SHT31;56575;48.942;8.404;2023-04-25T13:47:57;11.48;85.31
69387;SHT31;56575;48.942;8.404;2023-04-25T13:50:22;11.67;86.48
69387;SHT31;56575;48.942;8.404;2023-04-25T13:52:48;11.81;87.62
69387;SHT31;56575;48.942;8.404;2023-04-25T13:55:13;12.34;86.87
69387;SHT31;56575;48.942;8.404;2023-04-25T13:57:39;12.81;81.22
69387;SHT31;56575;48.942;8.404;2023-04-25T14:00:05;13.00;79.49
69387;SHT31;56575;48.942;8.404;2023-04-25T14:02:39;13.21;76.03
69387;SHT31;56575;48.942;8.404;2023-04-25T14:05:05;13.37;75.27
69387;SHT31;56575;48.942;8.404;2023-04-25T14:07:32;13.38;73.23
69387;SHT31;56575;48.942;8.404;2023-04-25T14:09:58;13.12;72.52
69387;SHT31;56575;48.942;8.404;2023-04-25T14:12:24;13.06;72.78
69387;SHT31;56575;48.942;8.404;2023-04-25T14:14:51;13.06;70.16
69387;SHT31;56575;48.942;8.404;2023-04-25T14:17:18;13.09;71.73
69387;SHT31;56575;48.942;8.404;2023-04-25T14:19:44;13.02;70.10
69387;SHT31;56575;48.942;8.404;2023-04-25T14:22:10;13.14;73.81
69387;SHT31;56575;48.942;8.404;2023-04-25T14:24:36;13.07;71.06
69387;SHT31;56575;48.942;8.404;2023-04-25T14:27:03;13.46;70.38
69387;SHT31;56575;48.942;8.404;2023-04-25T14:29:29;13.74;68.76
69387;SHT31;56575;48.942;8.404;2023-04-25T14:31:54;13.86;69.73
69387;SHT31;56575;48.942;8.404;2023-04-25T14:34:23;13.98;73.91
69387;SHT31;56575;48.942;8.404;2023-04-25T14:36:48;14.29;69.94
69387;SHT31;56575;48.942;8.404;2023-04-25T14:39:14;14.12;66.22
69387;SHT31;56575;48.942;8.404;2023-04-25T14:41:40;13.96;68.94
69387;SHT31;56575;48.942;8.404;2023-04-25T14:44:05;13.50;68.49
69387;SHT31;56575;48.942;8.404;2023-04-25T14:46:31;13.53;72.98
69387;SHT31;56575;48.942;8.404;2023-04-25T14:48:56;13.50;69.86
69387;SHT31;56575;48.942;8.404;2023-04-25T14:51:21;13.34;69.64
69387;SHT31;56575;48.942;8.404;2023-04-25T14:53:47;13.19;67.81
69387;SHT31;56575;48.942;8.404;2023-04-25T14:56:13;12.86;67.35
69387;SHT31;56575;48.942;8.404;2023-04-25T14:58:39;12.65;68.38
69387;SHT31;56575;48.942;8.404;2023-04-25T15:01:05;12.50;71.58
69387;SHT31;56575;48.942;8.404;2023-04-25T15:03:32;12.31;69.46
69387;SHT31;56575;48.942;8.404;2023-04-25T15:05:57;12.10;73.68
69387;SHT31;56575;48.942;8.404;2023-04-25T15:08:22;12.06;72.30
69387;SHT31;56575;48.942;8.404;2023-04-25T15:10:48;11.87;70.40
69387;SHT31;56575;48.942;8.404;2023-04-25T15:13:13;11.59;68.53
69387;SHT31;56575;48.942;8.404;2023-04-25T15:15:40;11.50;71.27
69387;SHT31;56575;48.942;8.404;2023-04-25T15:18:06;11.44;70.44
69387;SHT31;56575;48.942;8.404;2023-04-25T15:20:31;11.41;71.11
69387;SHT31;56575;48.942;8.404;2023-04-25T15:22:57;11.48;71.17
69387;SHT31;56575;48.942;8.404;2023-04-25T15:25:23;11.57;72.20
69387;SHT31;56575;48.942;8.404;2023-04-25T15:27:50;11.57;71.94
69387;SHT31;56575;48.942;8.404;2023-04-25T15:30:17;11.51;74.18
69387;SHT31;56575;48.942;8.404;2023-04-25T15:32:46;11.44;74.70
69387;SHT31;56575;48.942;8.404;2023-04-25T15:35:13;11.24;76.66
69387;SHT31;56575;48.942;8.404;2023-04-25T15:37:38;11.21;76.85
69387;SHT31;56575;48.942;8.404;2023-04-25T15:40:07;11.13;77.96
69387;SHT31;56575;48.942;8.404;2023-04-25T15:43:03;11.02;83.04
69387;SHT31;56575;48.942;8.404;2023-04-25T15:45:29;10.91;80.82
69387;SHT31;56575;48.942;8.404;2023-04-25T15:47:56;10.76;82.68
69387;SHT31;56575;48.942;8.404;2023-04-25T15:50:23;10.51;84.97
69387;SHT31;56575;48.942;8.404;2023-04-25T15:52:49;10.04;84.76